sensor_id;sensor_type;location;lat;lon;timestamp;temperature;humidity
19813;DHT22;10066;48.108;11.448;2024-01-25T00:01:54;8.40;99.90
19813;DHT22;10066;48.108;11.448;2024-01-25T00:04:21;8.40;99.90
19813;DHT22;10066;48.108;11.448;2024-01-25T00:06:48;8.40;99.90
19813;DHT22;10066;48.108;11.448;2024-01-25T00:09:17;8.30;99.90
19813;DHT22;10066;48.108;11.448;2024-01-25T00:11:44;8.30;99.90
19813;DHT22;10066;48.108;11.448;2024-01-25T00:14:11;8.30;99.90
19813;DHT22;10066;48.108;11.448;2024-01-25T00:16:40;8.30;99.90
19813;DHT22;10066;48.108;11.448;2024-01-25T00:19:07;8.30;99.90
19813;DHT22;10066;48.108;11.448;2024-01-25T00:21:34;8.30;99.90
19813;DHT22;10066;48.108;11.448;2024-01-25T00:24:02;8.30;99.90
19813;DHT22;10066;48.108;11.448;2024-01-25T00:26:30;8.30;99.90
19813;DHT22;10066;48.108;11.448;2024-01-25T00:28:57;8.30;99.90
19813;DHT22;10066;48.108;11.448;2024-01-25T00:31:25;8.30;99.90
19813;DHT22;10066;48.108;11.448;2024-01-25T00:33:53;8.30;99.90
19813;DHT22;10066;48.108;11.448;2024-01-25T00:36:20;8.30;99.90
19813;DHT22;10066;48.108;11.448;2024-01-25T00:38:48;8.30;99.90
19813;DHT22;10066;48.108;11.448;2024-01-25T00:41:17;8.30;99.90
19813;DHT22;10066;48.108;11.448;2024-01-25T00:43:48;8.30;99.90
19813;DHT22;10066;48.108;11.448;2024-01-25T00:46:16;8.30;99.90
19813;DHT22;10066;48.108;11.448;2024-01-25T00:48:43;8.30;99.90
19813;DHT22;10066;48.108;11.448;2024-01-25T00:51:15;8.30;99.90
19813;DHT22;10066;48.108;11.448;2024-01-25T00:53:44;8.30;99.90
19813;DHT22;10066;48.108;11.448;2024-01-25T00:56:12;8.30;99.90
19813;DHT22;10066;48.108;11.448;2024-01-25T00:58:39;8.30;99.90
19813;DHT22;10066;48.108;11.448;2024-01-25T01:01:09;8.40;99.90
19813;DHT22;10066;48.108;11.448;2024-01-25T01:03:37;8.40;99.90
19813;DHT22;10066;48.108;11.448;2024-01-25T01:06:05;8.40;99.90
19813;DHT22;10066;48.108;11.448;2024-01-25T01:08:32;8.40;99.90
19813;DHT22;10066;48.108;11.448;2024-01-25T01:10:59;8.40;99.90
19813;DHT22;10066;48.108;11.448;2024-01-25T01:13:27;8.40;99.90
19813;DHT22;10066;48.108;11.448;2024-01-25T01:15:54;8.50;99.90
19813;DHT22;10066;48.108;11.448;2024-01-25T01:18:22;8.50;99.90
19813;DHT22;10066;48.108;11.448;2024-01-25T01:20:49;8.50;99.90
19813;DHT22;10066;48.108;11.448;2024-01-25T01:23:16;8.50;99.90
19813;DHT22;10066;48.108;11.448;2024-01-25T01:25:42;8.50;99.90
19813;DHT22;10066;48.108;11.448;2024-01-25T01:28:09;8.50;99.90
19813;DHT22;10066;48.108;11.448;2024-01-25T01:30:36;8.50;99.90
19813;DHT22;10066;48.108;11.448;2024-01-25T01:33:07;8.60;99.90
19813;DHT22;10066;48.108;11.448;2024-01-25T01:35:35;8.50;99.90
19813;DHT22;10066;48.108;11.448;2024-01-25T01:38:03;8.50;99.90
19813;DHT22;10066;48.108;11.448;2024-01-25T01:40:30;8.50;99.90
19813;DHT22;10066;48.108;11.448;2024-01-25T01:43:00;8.50;99.90
19813;DHT22;10066;48.108;11.448;2024-01-25T01:45:27;8.50;99.90
19813;DHT22;10066;48.108;11.448;2024-01-25T01:47:55;8.50;99.90
19813;DHT22;10066;48.108;11.448;2024-01-25T01:50:22;8.50;99.90
19813;DHT22;10066;48.108;11.448;2024-01-25T01:52:52;8.50;99.90
19813;DHT22;10066;48.108;11.448;2024-01-25T01:55:19;8.50;99.90
19813;DHT22;10066;48.108;11.448;2024-01-25T01:57:49;8.50;99.90
19813;DHT22;10066;48.108;11.448;2024-01-25T02:00:16;8.50;99.90
19813;DHT22;10066;48.108;11.448;2024-01-25T02:02:44;8.50;99.90
19813;DHT22;10066;48.108;11.448;2024-01-25T02:05:11;8.50;99.90
19813;DHT22;10066;48.108;11.448;2024-01-25T02:07:39;8.50;99.90
19813;DHT22;10066;48.108;11.448;2024-01-25T02:10:09;8.50;99.90
19813;DHT22;10066;48.108;11.448;2024-01-25T02:12:36;8.50;99.90
19813;DHT22;10066;48.108;11.448;2024-01-25T02:15:05;8.50;99.90
19813;DHT22;10066;48.108;11.448;2024-01-25T02:17:33;8.50;99.90
19813;DHT22;10066;48.108;11.448;2024-01-25T02:20:00;8.50;99.90
19813;DHT22;10066;48.108;11.448;2024-01-25T02:22:30;8.50;99.90
19813;DHT22;10066;48.108;11.448;2024-01-25T02:24:57;8.50;99.90
19813;DHT22;10066;48.108;11.448;2024-01-25T02:27:24;8.50;99.90
19813;DHT22;10066;48.108;11.448;2024-01-25T02:29:51;8.50;99.90
19813;DHT22;10066;48.108;11.448;2024-01-25T02:32:19;8.50;99.90
19813;DHT22;10066;48.108;11.448;2024-01-25T02:34:46;8.50;99.90
19813;DHT22;10066;48.108;11.448;2024-01-25T02:37:13;8.50;99.90
19813;DHT22;10066;48.108;11.448;2024-01-25T02:39:41;8.40;99.90
19813;DHT22;10066;48.108;11.448;2024-01-25T02:42:08;8.50;99.90
19813;DHT22;10066;48.108;11.448;2024-01-25T02:44:35;8.50;99.90
19813;DHT22;10066;48.108;11.448;2024-01-25T02:47:02;8.50;99.90
19813;DHT22;10066;48.108;11.448;2024-01-25T02:49:29;8.50;99.90
19813;DHT22;10066;48.108;11.448;2024-01-25T02:51:56;8.40;99.90
19813;DHT22;10066;48.108;11.448;2024-01-25T02:54:24;8.40;99.90
19813;DHT22;10066;48.108;11.448;2024-01-25T02:56:52;8.50;99.90
19813;DHT22;10066;48.108;11.448;2024-01-25T02:59:20;8.50;99.90
19813;DHT22;10066;48.108;11.448;2024-01-25T03:01:48;8.50;99.90
19813;DHT22;10066;48.108;11.448;2024-01-25T03:04:15;8.50;99.90
19813;DHT22;10066;48.108;11.448;2024-01-25T03:06:42;8.50;99.90
19813;DHT22;10066;48.108;11.448;2024-01-25T03:09:09;8.50;99.90
19813;DHT22;10066;48.108;11.448;2024-01-25T03:11:36;8.60;99.90
19813;DHT22;10066;48.108;11.448;2024-01-25T03:14:05;8.60;99.90
19813;DHT22;10066;48.108;11.448;2024-01-25T03:16:32;8.60;99.90
19813;DHT22;10066;48.108;11.448;2024-01-25T03:18:59;8.60;99.90
19813;DHT22;10066;48.108;11.448;2024-01-25T03:21:26;8.60;99.90
19813;DHT22;10066;48.108;11.448;2024-01-25T03:23:53;8.60;99.90
19813;DHT22;10066;48.108;11.448;2024-01-25T03:26:20;8.50;99.90
19813;DHT22;10066;48.108;11.448;2024-01-25T03:28:47;8.50;99.90
19813;DHT22;10066;48.108;11.448;2024-01-25T03:31:16;8.50;99.90
19813;DHT22;10066;48.108;11.448;2024-01-25T03:33:43;8.50;99.90
19813;DHT22;10066;48.108;11.448;2024-01-25T03:36:13;8.50;99.90
19813;DHT22;10066;48.108;11.448;2024-01-25T03:38:40;8.50;99.90
19813;DHT22;10066;48.108;11.448;2024-01-25T03:41:08;8.50;99.90
19813;DHT22;10066;48.108;11.448;2024-01-25T03:43:35;8.50;99.90
19813;DHT22;10066;48.108;11.448;2024-01-25T03:46:02;8.50;99.90
19813;DHT22;10066;48.108;11.448;2024-01-25T03:48:31;8.50;99.90
19813;DHT22;10066;48.108;11.448;2024-01-25T03:50:58;8.50;99.90
19813;DHT22;10066;48.108;11.448;2024-01-25T03:53:25;8.40;99.90
19813;DHT22;10066;48.108;11.448;2024-01-25T03:55:52;8.40;99.90
19813;DHT22;10066;48.108;11.448;2024-01-25T03:58:19;8.40;99.90
19813;DHT22;10066;48.108;11.448;2024-01-25T04:00:46;8.40;99.90
19813;DHT22;10066;48.108;11.448;2024-01-25T04:03:13;8.30;99.90
19813;DHT22;10066;48.108;11.448;2024-01-25T04:05:42;8.30;99.90
19813;DHT22;10066;48.108;11.448;2024-01-25T04:08:09;8.30;99.90
19813;DHT22;10066;48.108;11.448;2024-01-25T04:10:36;8.30;99.90
19813;DHT22;10066;48.108;11.448;2024-01-25T04:13:04;8.30;99.90
19813;DHT22;10066;48.108;11.448;2024-01-25T04:15:32;8.30;99.90
19813;DHT22;10066;48.108;11.448;2024-01-25T04:17:59;8.30;99.90
19813;DHT22;10066;48.108;11.448;2024-01-25T04:20:26;8.30;99.90
19813;DHT22;10066;48.108;11.448;2024-01-25T04:22:54;8.30;99.90
19813;DHT22;10066;48.108;11.448;2024-01-25T04:25:21;8.30;99.90
19813;DHT22;10066;48.108;11.448;2024-01-25T04:27:48;8.30;99.90
19813;DHT22;10066;48.108;11.448;2024-01-25T04:30:15;8.40;99.90
19813;DHT22;10066;48.108;11.448;2024-01-25T04:32:42;8.40;99.90
19813;DHT22;10066;48.108;11.448;2024-01-25T04:35:11;8.40;99.90
19813;DHT22;10066;48.108;11.448;2024-01-25T04:37:38;8.50;99.90
19813;DHT22;10066;48.108;11.448;2024-01-25T04:40:08;8.50;99.90
19813;DHT22;10066;48.108;11.448;2024-01-25T04:42:35;8.50;99.90
19813;DHT22;10066;48.108;11.448;2024-01-25T04:45:03;8.50;99.90
19813;DHT22;10066;48.108;11.448;2024-01-25T04:47:30;8.50;99.90
19813;DHT22;10066;48.108;11.448;2024-01-25T04:49:57;8.50;99.90
19813;DHT22;10066;48.108;11.448;2024-01-25T04:52:25;8.40;99.90
19813;DHT22;10066;48.108;11.448;2024-01-25T04:54:52;8.40;99.90
19813;DHT22;10066;48.108;11.448;2024-01-25T04:57:20;8.40;99.90
19813;DHT22;10066;48.108;11.448;2024-01-25T04:59:47;8.40;99.90
19813;DHT22;10066;48.108;11.448;2024-01-25T05:02:14;8.40;99.90
19813;DHT22;10066;48.108;11.448;2024-01-25T05:04:41;8.40;99.90
19813;DHT22;10066;48.108;11.448;2024-01-25T05:07:08;8.40;99.90
19813;DHT22;10066;48.108;11.448;2024-01-25T05:09:35;8.40;99.90
19813;DHT22;10066;48.108;11.448;2024-01-25T05:12:03;8.40;99.90
19813;DHT22;10066;48.108;11.448;2024-01-25T05:14:31;8.40;99.90
19813;DHT22;10066;48.108;11.448;2024-01-25T05:16:58;8.30;99.90
19813;DHT22;10066;48.108;11.448;2024-01-25T05:19:25;8.30;99.90
19813;DHT22;10066;48.108;11.448;2024-01-25T05:21:52;8.30;99.90
19813;DHT22;10066;48.108;11.448;2024-01-25T05:24:19;8.30;99.90
19813;DHT22;10066;48.108;11.448;2024-01-25T05:26:46;8.30;99.90
19813;DHT22;10066;48.108;11.448;2024-01-25T05:29:13;8.30;99.90
19813;DHT22;10066;48.108;11.448;2024-01-25T05:31:43;8.30;99.90
19813;DHT22;10066;48.108;11.448;2024-01-25T05:34:11;8.30;99.90
19813;DHT22;10066;48.108;11.448;2024-01-25T05:36:38;8.30;99.90
19813;DHT22;10066;48.108;11.448;2024-01-25T05:39:05;8.30;99.90
19813;DHT22;10066;48.108;11.448;2024-01-25T05:41:33;8.30;99.90
19813;DHT22;10066;48.108;11.448;2024-01-25T05:44:01;8.30;99.90
19813;DHT22;10066;48.108;11.448;2024-01-25T05:46:28;8.30;99.90
19813;DHT22;10066;48.108;11.448;2024-01-25T05:48:56;8.30;99.90
19813;DHT22;10066;48.108;11.448;2024-01-25T05:51:23;8.30;99.90
19813;DHT22;10066;48.108;11.448;2024-01-25T05:53:50;8.30;99.90
19813;DHT22;10066;48.108;11.448;2024-01-25T05:56:18;8.30;99.90
19813;DHT22;10066;48.108;11.448;2024-01-25T05:58:45;8.30;99.90
19813;DHT22;10066;48.108;11.448;2024-01-25T06:01:12;8.30;99.90
19813;DHT22;10066;48.108;11.448;2024-01-25T06:03:39;8.30;99.90
19813;DHT22;10066;48.108;11.448;2024-01-25T06:06:07;8.20;99.90
19813;DHT22;10066;48.108;11.448;2024-01-25T06:08:34;8.30;99.90
19813;DHT22;10066;48.108;11.448;2024-01-25T06:11:01;8.30;99.90
19813;DHT22;10066;48.108;11.448;2024-01-25T06:13:28;8.30;99.90
19813;DHT22;10066;48.108;11.448;2024-01-25T06:15:55;8.30;99.90
19813;DHT22;10066;48.108;11.448;2024-01-25T06:18:22;8.30;99.90
19813;DHT22;10066;48.108;11.448;2024-01-25T06:20:49;8.30;99.90
19813;DHT22;10066;48.108;11.448;2024-01-25T06:23:18;8.20;99.90
19813;DHT22;10066;48.108;11.448;2024-01-25T06:25:45;8.20;99.90
19813;DHT22;10066;48.108;11.448;2024-01-25T06:28:12;8.20;99.90
19813;DHT22;10066;48.108;11.448;2024-01-25T06:30:39;8.10;99.90
19813;DHT22;10066;48.108;11.448;2024-01-25T06:33:07;8.10;99.90
19813;DHT22;10066;48.108;11.448;2024-01-25T06:35:34;8.00;99.90
19813;DHT22;10066;48.108;11.448;2024-01-25T06:38:01;8.00;99.90
19813;DHT22;10066;48.108;11.448;2024-01-25T06:40:29;8.00;99.90
19813;DHT22;10066;48.108;11.448;2024-01-25T06:42:56;7.90;99.90
19813;DHT22;10066;48.108;11.448;2024-01-25T06:45:23;7.90;99.90
19813;DHT22;10066;48.108;11.448;2024-01-25T06:47:50;7.80;99.90
19813;DHT22;10066;48.108;11.448;2024-01-25T06:50:17;7.70;99.90
19813;DHT22;10066;48.108;11.448;2024-01-25T06:52:44;7.60;99.90
19813;DHT22;10066;48.108;11.448;2024-01-25T06:55:11;7.50;99.90
19813;DHT22;10066;48.108;11.448;2024-01-25T06:57:40;7.40;99.90
19813;DHT22;10066;48.108;11.448;2024-01-25T07:00:08;7.40;99.90
19813;DHT22;10066;48.108;11.448;2024-01-25T07:02:37;7.30;99.90
19813;DHT22;10066;48.108;11.448;2024-01-25T07:05:04;7.20;99.90
19813;DHT22;10066;48.108;11.448;2024-01-25T07:07:32;7.20;99.90
19813;DHT22;10066;48.108;11.448;2024-01-25T07:09:59;7.20;99.90
19813;DHT22;10066;48.108;11.448;2024-01-25T07:12:26;7.10;99.90
19813;DHT22;10066;48.108;11.448;2024-01-25T07:14:55;7.10;99.90
19813;DHT22;10066;48.108;11.448;2024-01-25T07:17:22;7.10;99.90
19813;DHT22;10066;48.108;11.448;2024-01-25T07:19:49;7.20;99.90
19813;DHT22;10066;48.108;11.448;2024-01-25T07:22:16;7.20;99.90
19813;DHT22;10066;48.108;11.448;2024-01-25T07:24:44;7.20;99.90
19813;DHT22;10066;48.108;11.448;2024-01-25T07:27:11;7.30;99.90
19813;DHT22;10066;48.108;11.448;2024-01-25T07:29:38;7.30;99.90
19813;DHT22;10066;48.108;11.448;2024-01-25T07:32:07;7.30;99.90
19813;DHT22;10066;48.108;11.448;2024-01-25T07:34:34;7.40;99.90
19813;DHT22;10066;48.108;11.448;2024-01-25T07:37:01;7.50;99.90
19813;DHT22;10066;48.108;11.448;2024-01-25T07:39:28;7.60;99.90
19813;DHT22;10066;48.108;11.448;2024-01-25T07:41:55;7.70;99.90
19813;DHT22;10066;48.108;11.448;2024-01-25T07:44:22;7.70;99.90
19813;DHT22;10066;48.108;11.448;2024-01-25T07:46:49;7.80;99.90
19813;DHT22;10066;48.108;11.448;2024-01-25T07:49:17;7.80;99.90
19813;DHT22;10066;48.108;11.448;2024-01-25T07:51:45;7.80;99.90
19813;DHT22;10066;48.108;11.448;2024-01-25T07:54:12;7.90;99.90
19813;DHT22;10066;48.108;11.448;2024-01-25T07:56:39;7.90;99.90
19813;DHT22;10066;48.108;11.448;2024-01-25T07:59:06;7.90;99.90
19813;DHT22;10066;48.108;11.448;2024-01-25T08:01:33;8.00;99.90
19813;DHT22;10066;48.108;11.448;2024-01-25T08:04:00;8.00;99.90
19813;DHT22;10066;48.108;11.448;2024-01-25T08:06:30;8.00;99.90
19813;DHT22;10066;48.108;11.448;2024-01-25T08:08:57;8.00;99.90
19813;DHT22;10066;48.108;11.448;2024-01-25T08:11:24;8.00;99.90
19813;DHT22;10066;48.108;11.448;2024-01-25T08:13:52;8.00;99.90
19813;DHT22;10066;48.108;11.448;2024-01-25T08:16:19;8.00;99.90
19813;DHT22;10066;48.108;11.448;2024-01-25T08:18:46;8.00;99.90
19813;DHT22;10066;48.108;11.448;2024-01-25T08:21:13;8.10;99.90
19813;DHT22;10066;48.108;11.448;2024-01-25T08:23:42;8.10;99.90
19813;DHT22;10066;48.108;11.448;2024-01-25T08:26:09;8.10;99.90
19813;DHT22;10066;48.108;11.448;2024-01-25T08:28:39;8.10;99.90
19813;DHT22;10066;48.108;11.448;2024-01-25T08:31:06;8.00;99.90
19813;DHT22;10066;48.108;11.448;2024-01-25T08:33:33;8.00;99.90
19813;DHT22;10066;48.108;11.448;2024-01-25T08:36:00;8.00;99.90
19813;DHT22;10066;48.108;11.448;2024-01-25T08:38:27;7.90;99.90
19813;DHT22;10066;48.108;11.448;2024-01-25T08:40:56;7.90;99.90
19813;DHT22;10066;48.108;11.448;2024-01-25T08:43:23;7.80;99.90
19813;DHT22;10066;48.108;11.448;2024-01-25T08:45:50;7.80;99.90
19813;DHT22;10066;48.108;11.448;2024-01-25T08:48:17;7.70;99.90
19813;DHT22;10066;48.108;11.448;2024-01-25T08:50:44;7.70;99.90
19813;DHT22;10066;48.108;11.448;2024-01-25T08:53:11;7.80;99.90
19813;DHT22;10066;48.108;11.448;2024-01-25T08:55:38;7.80;99.90
19813;DHT22;10066;48.108;11.448;2024-01-25T08:58:06;7.90;99.90
19813;DHT22;10066;48.108;11.448;2024-01-25T09:00:33;8.10;99.90
19813;DHT22;10066;48.108;11.448;2024-01-25T09:03:00;8.10;99.90
19813;DHT22;10066;48.108;11.448;2024-01-25T09:05:27;8.30;99.90
19813;DHT22;10066;48.108;11.448;2024-01-25T09:07:54;8.30;99.90
19813;DHT22;10066;48.108;11.448;2024-01-25T09:10:22;8.40;99.90
19813;DHT22;10066;48.108;11.448;2024-01-25T09:12:48;8.50;99.90
19813;DHT22;10066;48.108;11.448;2024-01-25T09:15:17;8.40;99.90
19813;DHT22;10066;48.108;11.448;2024-01-25T09:17:44;8.40;99.90
19813;DHT22;10066;48.108;11.448;2024-01-25T09:20:12;8.30;99.90
19813;DHT22;10066;48.108;11.448;2024-01-25T09:22:39;8.30;99.90
19813;DHT22;10066;48.108;11.448;2024-01-25T09:25:06;8.20;99.90
19813;DHT22;10066;48.108;11.448;2024-01-25T09:27:33;8.10;99.90
19813;DHT22;10066;48.108;11.448;2024-01-25T09:30:00;8.10;99.90
19813;DHT22;10066;48.108;11.448;2024-01-25T09:32:29;8.10;99.90
19813;DHT22;10066;48.108;11.448;2024-01-25T09:34:56;8.20;99.90
19813;DHT22;10066;48.108;11.448;2024-01-25T09:37:23;8.20;99.90
19813;DHT22;10066;48.108;11.448;2024-01-25T09:39:50;8.30;99.90
19813;DHT22;10066;48.108;11.448;2024-01-25T09:42:18;8.40;99.90
19813;DHT22;10066;48.108;11.448;2024-01-25T09:44:45;8.40;99.90
19813;DHT22;10066;48.108;11.448;2024-01-25T09:47:12;8.40;99.90
19813;DHT22;10066;48.108;11.448;2024-01-25T09:49:43;8.50;99.90
19813;DHT22;10066;48.108;11.448;2024-01-25T09:52:12;8.60;99.90
19813;DHT22;10066;48.108;11.448;2024-01-25T09:54:40;8.80;99.90
19813;DHT22;10066;48.108;11.448;2024-01-25T09:57:13;9.00;99.90
19813;DHT22;10066;48.108;11.448;2024-01-25T09:59:42;9.20;99.90
19813;DHT22;10066;48.108;11.448;2024-01-25T10:02:10;9.30;99.90
19813;DHT22;10066;48.108;11.448;2024-01-25T10:04:37;9.50;99.90
19813;DHT22;10066;48.108;11.448;2024-01-25T10:07:06;9.50;99.90
19813;DHT22;10066;48.108;11.448;2024-01-25T10:09:38;9.60;99.90
19813;DHT22;10066;48.108;11.448;2024-01-25T10:12:06;9.70;99.90
19813;DHT22;10066;48.108;11.448;2024-01-25T10:14:33;9.90;99.90
19813;DHT22;10066;48.108;11.448;2024-01-25T10:17:00;10.00;99.90
19813;DHT22;10066;48.108;11.448;2024-01-25T10:19:28;10.00;99.90
19813;DHT22;10066;48.108;11.448;2024-01-25T10:21:56;10.10;99.90
19813;DHT22;10066;48.108;11.448;2024-01-25T10:24:24;10.20;99.90
19813;DHT22;10066;48.108;11.448;2024-01-25T10:26:51;10.10;99.90
19813;DHT22;10066;48.108;11.448;2024-01-25T10:29:18;10.10;99.90
19813;DHT22;10066;48.108;11.448;2024-01-25T10:31:46;10.00;99.90
19813;DHT22;10066;48.108;11.448;2024-01-25T10:34:14;10.00;99.90
19813;DHT22;10066;48.108;11.448;2024-01-25T10:36:41;9.90;99.90
19813;DHT22;10066;48.108;11.448;2024-01-25T10:39:09;9.80;99.90
19813;DHT22;10066;48.108;11.448;2024-01-25T10:41:38;9.80;99.90
19813;DHT22;10066;48.108;11.448;2024-01-25T10:44:06;9.70;99.90
19813;DHT22;10066;48.108;11.448;2024-01-25T10:46:34;9.70;99.90
19813;DHT22;10066;48.108;11.448;2024-01-25T10:49:02;9.60;99.90
19813;DHT22;10066;48.108;11.448;2024-01-25T10:51:30;9.40;99.90
19813;DHT22;10066;48.108;11.448;2024-01-25T10:53:57;9.20;99.90
19813;DHT22;10066;48.108;11.448;2024-01-25T10:56:25;9.10;99.90
19813;DHT22;10066;48.108;11.448;2024-01-25T10:58:54;9.00;99.90
19813;DHT22;10066;48.108;11.448;2024-01-25T11:01:21;9.00;99.90
19813;DHT22;10066;48.108;11.448;2024-01-25T11:03:49;8.90;99.90
19813;DHT22;10066;48.108;11.448;2024-01-25T11:06:18;8.80;99.90
19813;DHT22;10066;48.108;11.448;2024-01-25T11:08:47;8.90;99.90
19813;DHT22;10066;48.108;11.448;2024-01-25T11:11:14;8.90;99.90
19813;DHT22;10066;48.108;11.448;2024-01-25T11:13:42;8.90;99.90
19813;DHT22;10066;48.108;11.448;2024-01-25T11:16:16;8.80;99.90
19813;DHT22;10066;48.108;11.448;2024-01-25T11:18:49;8.70;99.90
19813;DHT22;10066;48.108;11.448;2024-01-25T11:21:25;8.70;99.90
19813;DHT22;10066;48.108;11.448;2024-01-25T11:24:00;8.70;99.90
19813;DHT22;10066;48.108;11.448;2024-01-25T11:26:27;8.70;99.90
19813;DHT22;10066;48.108;11.448;2024-01-25T11:28:55;8.70;99.90
19813;DHT22;10066;48.108;11.448;2024-01-25T11:31:23;8.60;99.90
19813;DHT22;10066;48.108;11.448;2024-01-25T11:33:51;8.60;99.90
19813;DHT22;10066;48.108;11.448;2024-01-25T11:36:20;8.60;99.90
19813;DHT22;10066;48.108;11.448;2024-01-25T11:38:48;8.60;99.90
19813;DHT22;10066;48.108;11.448;2024-01-25T11:41:15;8.70;99.90
19813;DHT22;10066;48.108;11.448;2024-01-25T11:43:43;8.60;99.90
19813;DHT22;10066;48.108;11.448;2024-01-25T11:46:10;8.60;99.90
19813;DHT22;10066;48.108;11.448;2024-01-25T11:48:41;8.60;99.90
19813;DHT22;10066;48.108;11.448;2024-01-25T11:51:09;8.60;99.90
19813;DHT22;10066;48.108;11.448;2024-01-25T11:53:37;8.80;99.90
19813;DHT22;10066;48.108;11.448;2024-01-25T11:56:07;8.80;99.90
19813;DHT22;10066;48.108;11.448;2024-01-25T11:58:35;8.90;99.90
19813;DHT22;10066;48.108;11.448;2024-01-25T12:01:03;8.90;99.90
19813;DHT22;10066;48.108;11.448;2024-01-25T12:03:34;8.90;99.90
19813;DHT22;10066;48.108;11.448;2024-01-25T12:06:03;8.90;99.90
19813;DHT22;10066;48.108;11.448;2024-01-25T12:08:32;8.90;99.90
19813;DHT22;10066;48.108;11.448;2024-01-25T12:11:04;8.90;99.90
19813;DHT22;10066;48.108;11.448;2024-01-25T12:13:36;9.00;99.90
19813;DHT22;10066;48.108;11.448;2024-01-25T12:16:05;9.00;99.90
19813;DHT22;10066;48.108;11.448;2024-01-25T12:18:33;9.20;99.90
19813;DHT22;10066;48.108;11.448;2024-01-25T12:21:03;9.30;99.90
19813;DHT22;10066;48.108;11.448;2024-01-25T12:23:34;9.30;99.90
19813;DHT22;10066;48.108;11.448;2024-01-25T12:26:03;9.40;99.90
19813;DHT22;10066;48.108;11.448;2024-01-25T12:28:30;9.40;99.90
19813;DHT22;10066;48.108;11.448;2024-01-25T12:30:58;9.50;99.90
19813;DHT22;10066;48.108;11.448;2024-01-25T12:33:25;9.50;99.90
19813;DHT22;10066;48.108;11.448;2024-01-25T12:35:52;9.50;99.90
19813;DHT22;10066;48.108;11.448;2024-01-25T12:38:22;9.60;99.90
19813;DHT22;10066;48.108;11.448;2024-01-25T12:40:50;9.70;99.90
19813;DHT22;10066;48.108;11.448;2024-01-25T12:43:18;9.80;99.90
19813;DHT22;10066;48.108;11.448;2024-01-25T12:45:45;9.80;99.90
19813;DHT22;10066;48.108;11.448;2024-01-25T12:48:13;9.80;99.90
19813;DHT22;10066;48.108;11.448;2024-01-25T12:50:40;9.90;99.90
19813;DHT22;10066;48.108;11.448;2024-01-25T12:53:10;10.00;99.90
19813;DHT22;10066;48.108;11.448;2024-01-25T12:55:39;10.10;99.90
19813;DHT22;10066;48.108;11.448;2024-01-25T12:58:06;10.20;99.90
19813;DHT22;10066;48.108;11.448;2024-01-25T13:00:33;10.20;99.90
19813;DHT22;10066;48.108;11.448;2024-01-25T13:03:00;10.20;99.90
19813;DHT22;10066;48.108;11.448;2024-01-25T13:05:28;10.20;99.90
19813;DHT22;10066;48.108;11.448;2024-01-25T13:07:55;10.10;99.90
19813;DHT22;10066;48.108;11.448;2024-01-25T13:10:22;10.10;99.90
19813;DHT22;10066;48.108;11.448;2024-01-25T13:12:50;10.10;99.90
19813;DHT22;10066;48.108;11.448;2024-01-25T13:15:17;10.00;99.90
19813;DHT22;10066;48.108;11.448;2024-01-25T13:17:44;10.00;99.90
19813;DHT22;10066;48.108;11.448;2024-01-25T13:20:12;9.90;99.90
19813;DHT22;10066;48.108;11.448;2024-01-25T13:22:39;10.00;99.90
19813;DHT22;10066;48.108;11.448;2024-01-25T13:25:06;10.00;99.90
19813;DHT22;10066;48.108;11.448;2024-01-25T13:27:36;9.90;99.90
19813;DHT22;10066;48.108;11.448;2024-01-25T13:30:08;10.00;99.90
19813;DHT22;10066;48.108;11.448;2024-01-25T13:32:37;10.00;99.90
19813;DHT22;10066;48.108;11.448;2024-01-25T13:35:04;10.00;99.90
19813;DHT22;10066;48.108;11.448;2024-01-25T13:37:32;10.00;99.90
19813;DHT22;10066;48.108;11.448;2024-01-25T13:39:59;10.00;99.90
19813;DHT22;10066;48.108;11.448;2024-01-25T13:42:26;10.10;99.90
19813;DHT22;10066;48.108;11.448;2024-01-25T13:44:53;10.10;99.90
19813;DHT22;10066;48.108;11.448;2024-01-25T13:47:21;10.10;99.90
19813;DHT22;10066;48.108;11.448;2024-01-25T13:49:48;10.20;99.90
19813;DHT22;10066;48.108;11.448;2024-01-25T13:52:18;10.20;99.90
19813;DHT22;10066;48.108;11.448;2024-01-25T13:54:45;10.20;99.90
19813;DHT22;10066;48.108;11.448;2024-01-25T13:57:13;10.20;99.90
19813;DHT22;10066;48.108;11.448;2024-01-25T13:59:40;10.20;99.90
19813;DHT22;10066;48.108;11.448;2024-01-25T14:02:08;10.20;99.90
19813;DHT22;10066;48.108;11.448;2024-01-25T14:04:37;10.10;99.90
19813;DHT22;10066;48.108;11.448;2024-01-25T14:07:04;10.00;99.90
19813;DHT22;10066;48.108;11.448;2024-01-25T14:09:31;9.90;99.90
19813;DHT22;10066;48.108;11.448;2024-01-25T14:11:58;9.90;99.90
19813;DHT22;10066;48.108;11.448;2024-01-25T14:14:25;9.90;99.90
19813;DHT22;10066;48.108;11.448;2024-01-25T14:16:52;9.90;99.90
19813;DHT22;10066;48.108;11.448;2024-01-25T14:19:19;9.90;99.90
19813;DHT22;10066;48.108;11.448;2024-01-25T14:21:48;9.80;99.90
19813;DHT22;10066;48.108;11.448;2024-01-25T14:24:16;9.70;99.90
19813;DHT22;10066;48.108;11.448;2024-01-25T14:26:44;9.70;99.90
19813;DHT22;10066;48.108;11.448;2024-01-25T14:29:12;9.70;99.90
19813;DHT22;10066;48.108;11.448;2024-01-25T14:31:39;9.70;99.90
19813;DHT22;10066;48.108;11.448;2024-01-25T14:34:07;9.70;99.90
19813;DHT22;10066;48.108;11.448;2024-01-25T14:36:35;9.60;99.90
19813;DHT22;10066;48.108;11.448;2024-01-25T14:39:03;9.60;99.90
19813;DHT22;10066;48.108;11.448;2024-01-25T14:41:32;9.50;99.90
19813;DHT22;10066;48.108;11.448;2024-01-25T14:44:00;9.50;99.90
19813;DHT22;10066;48.108;11.448;2024-01-25T14:46:27;9.50;99.90
19813;DHT22;10066;48.108;11.448;2024-01-25T14:48:54;9.50;99.90
19813;DHT22;10066;48.108;11.448;2024-01-25T14:51:22;9.50;99.90
19813;DHT22;10066;48.108;11.448;2024-01-25T14:53:49;9.50;99.90
19813;DHT22;10066;48.108;11.448;2024-01-25T14:56:18;9.50;99.90
19813;DHT22;10066;48.108;11.448;2024-01-25T14:58:45;9.40;99.90
19813;DHT22;10066;48.108;11.448;2024-01-25T15:01:13;9.40;99.90
19813;DHT22;10066;48.108;11.448;2024-01-25T15:03:43;9.30;99.90
19813;DHT22;10066;48.108;11.448;2024-01-25T15:06:10;9.30;99.90
19813;DHT22;10066;48.108;11.448;2024-01-25T15:08:37;9.20;99.90
19813;DHT22;10066;48.108;11.448;2024-01-25T15:11:04;9.20;99.90
19813;DHT22;10066;48.108;11.448;2024-01-25T15:13:32;9.10;99.90
19813;DHT22;10066;48.108;11.448;2024-01-25T15:16:00;9.10;99.90
19813;DHT22;10066;48.108;11.448;2024-01-25T15:18:27;9.10;99.90
19813;DHT22;10066;48.108;11.448;2024-01-25T15:20:54;9.10;99.90
19813;DHT22;10066;48.108;11.448;2024-01-25T15:23:20;9.10;99.90
19813;DHT22;10066;48.108;11.448;2024-01-25T15:25:47;9.10;99.90
19813;DHT22;10066;48.108;11.448;2024-01-25T15:28:15;9.10;99.90
19813;DHT22;10066;48.108;11.448;2024-01-25T15:30:44;9.00;99.90
19813;DHT22;10066;48.108;11.448;2024-01-25T15:33:11;9.00;99.90